Time;durP1;ratioP1;P1;durP2;ratioP2;P2;SDS_P1;SDS_P2;PMS_P1;PMS_P2;Temp;Humidity;BMP_temperature;BMP_pressure;BME280_temperature;BME280_humidity;BME280_pressure;Samples;Min_cycle;Max_cycle;Signal;HPM_P1;HPM_P2
2023/06/20 00:01:37;;;;;;;4.97;4.53;;;25.50;78.00;;;;;;5064412;28;20467;-53
2023/06/20 00:04:04;;;;;;;4.17;3.87;;;25.50;78.00;;;;;;5061889;28;20460;-56
2023/06/20 00:06:31;;;;;;;5.50;5.00;;;25.50;78.10;;;;;;5063844;28;20452;-53
2023/06/20 00:08:57;;;;;;;5.00;4.60;;;25.50;78.00;;;;;;5064465;28;20452;-55
2023/06/20 00:11:24;;;;;;;4.43;4.10;;;25.40;77.90;;;;;;5068974;28;20468;-54
2023/06/20 00:13:52;;;;;;;4.60;4.20;;;25.50;78.00;;;;;;5070262;28;20479;-54
2023/06/20 00:16:20;;;;;;;5.30;4.57;;;25.50;78.00;;;;;;5072112;28;20472;-54
2023/06/20 00:18:53;;;;;;;4.80;4.40;;;25.50;78.00;;;;;;5073821;28;20841;-54
2023/06/20 00:21:20;;;;;;;4.77;4.37;;;25.50;78.00;;;;;;5073359;28;20938;-54
2023/06/20 00:23:47;;;;;;;4.10;3.73;;;25.40;77.90;;;;;;5073330;28;20519;-52
2023/06/20 00:26:14;;;;;;;5.30;4.80;;;25.50;78.00;;;;;;5070553;28;20449;-54
2023/06/20 00:28:40;;;;;;;5.20;4.70;;;25.40;77.90;;;;;;5070344;28;20461;-55
2023/06/20 00:31:08;;;;;;;3.83;3.50;;;25.50;77.90;;;;;;5065875;28;20838;-55
2023/06/20 00:33:36;;;;;;;3.87;3.53;;;25.50;78.00;;;;;;5068000;28;20850;-55
2023/06/20 00:36:03;;;;;;;4.20;3.60;;;25.40;77.80;;;;;;5073187;28;20472;-51
2023/06/20 00:38:30;;;;;;;4.07;3.73;;;25.50;77.90;;;;;;5069741;28;20448;-54
2023/06/20 00:40:57;;;;;;;5.23;4.23;;;25.40;77.80;;;;;;5067443;28;20462;-53
2023/06/20 00:43:23;;;;;;;3.60;3.30;;;25.50;77.90;;;;;;5068062;28;20468;-55
2023/06/20 00:45:50;;;;;;;4.67;4.27;;;25.50;77.90;;;;;;5068123;28;20470;-51
2023/06/20 00:48:19;;;;;;;4.30;3.97;;;25.40;77.80;;;;;;5065092;28;20902;-55
2023/06/20 00:50:46;;;;;;;4.43;4.03;;;25.40;77.80;;;;;;5071158;28;20467;-54
2023/06/20 00:53:12;;;;;;;4.77;4.37;;;25.40;77.80;;;;;;5071722;28;20586;-51
2023/06/20 00:55:39;;;;;;;3.60;3.30;;;25.40;77.80;;;;;;5071999;28;20994;-53
2023/06/20 00:58:06;;;;;;;7.93;4.33;;;25.40;77.70;;;;;;5068724;28;20833;-56
2023/06/20 01:00:35;;;;;;;4.00;3.70;;;25.40;77.70;;;;;;5065536;28;20952;-56
2023/06/20 01:03:05;;;;;;;4.97;4.47;;;25.40;77.80;;;;;;5067765;28;20488;-55
2023/06/20 01:05:34;;;;;;;4.30;4.00;;;25.40;77.80;;;;;;5069227;28;20468;-53
2023/06/20 01:08:09;;;;;;;4.60;4.20;;;25.40;77.70;;;;;;5068674;28;20469;-55
2023/06/20 01:10:49;;;;;;;4.53;4.10;;;25.40;77.70;;;;;;5069179;28;20468;-54
2023/06/20 01:13:25;;;;;;;4.17;3.77;;;25.50;77.90;;;;;;5069196;28;20487;-52
2023/06/20 01:15:59;;;;;;;4.70;4.30;;;25.40;77.80;;;;;;5063823;28;20460;-56
2023/06/20 01:18:37;;;;;;;3.70;3.40;;;25.40;77.70;;;;;;5068769;28;20469;-54
2023/06/20 01:21:10;;;;;;;4.73;4.27;;;25.40;77.80;;;;;;5067863;28;20467;-51
2023/06/20 01:23:42;;;;;;;4.97;4.47;;;25.40;77.70;;;;;;5067055;28;20473;-51
2023/06/20 01:26:17;;;;;;;4.37;4.00;;;25.40;77.70;;;;;;5067949;28;20464;-56
2023/06/20 01:28:50;;;;;;;4.30;4.00;;;25.40;77.70;;;;;;5068276;28;21001;-53
2023/06/20 01:31:19;;;;;;;4.57;4.07;;;25.40;77.80;;;;;;5066407;28;20471;-51
2023/06/20 01:33:49;;;;;;;4.30;4.00;;;25.40;77.80;;;;;;5069443;28;20480;-54
2023/06/20 01:36:19;;;;;;;4.23;3.87;;;25.40;77.70;;;;;;5069306;28;20972;-54
2023/06/20 01:38:50;;;;;;;5.27;4.30;;;25.40;77.60;;;;;;5069935;28;20459;-55
2023/06/20 01:41:21;;;;;;;4.60;4.20;;;25.30;77.60;;;;;;5067833;28;20823;-55
2023/06/20 01:43:50;;;;;;;4.07;3.70;;;25.30;77.60;;;;;;5065526;28;20551;-56
2023/06/20 01:46:19;;;;;;;5.40;4.90;;;25.30;77.60;;;;;;5068938;28;20552;-55
2023/06/20 01:48:48;;;;;;;4.00;3.70;;;25.40;77.60;;;;;;5068826;28;20775;-55
2023/06/20 01:51:16;;;;;;;3.77;3.47;;;25.30;77.60;;;;;;5066349;28;20472;-57
2023/06/20 01:53:43;;;;;;;4.70;4.30;;;25.30;77.60;;;;;;5073990;28;20469;-52
2023/06/20 01:56:13;;;;;;;3.90;3.60;;;25.30;77.60;;;;;;5066865;28;21058;-54
2023/06/20 01:58:41;;;;;;;4.63;3.30;;;25.30;77.50;;;;;;5068580;28;20685;-54
2023/06/20 02:01:08;;;;;;;4.10;3.80;;;25.30;77.60;;;;;;5066396;28;20544;-56
2023/06/20 02:03:36;;;;;;;4.83;4.40;;;25.40;77.60;;;;;;5071622;28;20986;-54
2023/06/20 02:06:03;;;;;;;5.13;4.40;;;25.40;77.60;;;;;;5068968;28;20460;-54
2023/06/20 02:08:32;;;;;;;3.63;3.33;;;25.30;77.60;;;;;;5064483;28;20463;-50
2023/06/20 02:11:01;;;;;;;4.43;4.07;;;25.30;77.50;;;;;;5070411;28;21019;-52
2023/06/20 02:13:29;;;;;;;4.13;3.73;;;25.30;77.50;;;;;;5070170;28;20592;-51
2023/06/20 02:15:57;;;;;;;4.23;3.93;;;25.30;77.50;;;;;;5072819;28;20460;-55
2023/06/20 02:18:24;;;;;;;4.10;3.80;;;25.30;77.50;;;;;;5070021;28;20464;-54
2023/06/20 02:20:53;;;;;;;4.70;4.30;;;25.30;77.50;;;;;;5070138;28;20463;-54
2023/06/20 02:23:26;;;;;;;4.40;4.07;;;25.30;77.50;;;;;;5069840;28;21026;-54
2023/06/20 02:25:55;;;;;;;5.00;4.60;;;25.30;77.50;;;;;;5072768;28;21573;-55
2023/06/20 02:28:23;;;;;;;4.33;3.93;;;25.30;77.50;;;;;;5072149;28;21196;-51
2023/06/20 02:30:54;;;;;;;4.10;3.80;;;25.30;77.40;;;;;;5066430;28;20486;-54
2023/06/20 02:33:22;;;;;;;4.57;4.17;;;25.30;77.80;;;;;;5066237;28;20477;-57
2023/06/20 02:35:50;;;;;;;4.80;4.40;;;25.30;77.50;;;;;;5063156;28;20584;-54
2023/06/20 02:38:17;;;;;;;4.30;3.90;;;25.30;77.40;;;;;;5063474;28;20465;-55
2023/06/20 02:40:44;;;;;;;4.13;3.83;;;25.30;77.40;;;;;;5064870;28;20464;-54
2023/06/20 02:43:11;;;;;;;4.67;4.27;;;25.30;77.40;;;;;;5068974;28;21091;-52
2023/06/20 02:45:38;;;;;;;4.37;3.97;;;25.30;77.40;;;;;;5065997;28;20509;-54
2023/06/20 02:48:20;;;;;;;4.20;3.80;;;25.30;77.40;;;;;;5065206;28;20453;-56
2023/06/20 02:50:59;;;;;;;4.00;3.70;;;25.30;77.40;;;;;;5065956;28;20460;-52
2023/06/20 02:53:34;;;;;;;5.10;4.70;;;25.30;77.40;;;;;;5073093;28;20448;-53
2023/06/20 02:56:02;;;;;;;3.83;3.43;;;25.30;77.40;;;;;;5074737;28;20456;-56
2023/06/20 02:58:31;;;;;;;3.90;3.60;;;25.30;77.40;;;;;;5070687;28;20449;-53
2023/06/20 03:01:00;;;;;;;4.17;3.77;;;25.30;77.30;;;;;;5070348;28;20526;-55
2023/06/20 03:03:33;;;;;;;3.80;3.50;;;25.30;77.30;;;;;;5075478;28;20524;-51
2023/06/20 03:06:01;;;;;;;4.57;4.17;;;25.30;77.30;;;;;;5068768;28;20491;-52
2023/06/20 03:08:30;;;;;;;3.90;3.50;;;25.30;77.30;;;;;;5070085;28;20456;-52
2023/06/20 03:10:58;;;;;;;3.83;3.53;;;25.30;77.30;;;;;;5070137;28;20441;-53
2023/06/20 03:13:25;;;;;;;4.57;4.10;;;25.30;77.30;;;;;;5067783;28;21675;-52
2023/06/20 03:15:51;;;;;;;4.03;3.70;;;25.30;77.30;;;;;;5062623;28;20451;-51
2023/06/20 03:18:18;;;;;;;4.40;3.47;;;25.30;77.30;;;;;;5065948;28;20475;-54
2023/06/20 03:20:48;;;;;;;4.13;3.83;;;25.30;77.30;;;;;;5069743;28;20453;-54
2023/06/20 03:23:15;;;;;;;4.33;3.90;;;25.30;77.30;;;;;;5070052;28;20456;-56
2023/06/20 03:25:42;;;;;;;3.53;3.23;;;25.30;77.40;;;;;;5069585;28;20574;-53
2023/06/20 03:28:08;;;;;;;3.97;3.57;;;25.30;77.30;;;;;;5071301;28;20456;-53
2023/06/20 03:30:35;;;;;;;4.17;3.77;;;25.30;78.10;;;;;;5069343;28;20456;-54
2023/06/20 03:33:02;;;;;;;4.20;3.87;;;25.30;77.30;;;;;;5074733;28;20464;-54
2023/06/20 03:35:28;;;;;;;4.67;4.30;;;25.30;77.30;;;;;;5072012;28;20590;-52
2023/06/20 03:37:56;;;;;;;3.77;3.47;;;25.30;77.30;;;;;;5071459;28;20821;-53
2023/06/20 03:40:24;;;;;;;4.40;4.00;;;25.30;77.30;;;;;;5067643;28;20444;-55
2023/06/20 03:42:51;;;;;;;4.10;3.80;;;25.30;77.30;;;;;;5062911;28;20460;-50
2023/06/20 03:45:18;;;;;;;3.60;3.30;;;25.30;77.30;;;;;;5066791;28;20590;-55
2023/06/20 03:47:44;;;;;;;3.83;3.53;;;25.30;77.30;;;;;;5072530;28;20459;-57
2023/06/20 03:50:11;;;;;;;4.07;3.77;;;25.30;77.20;;;;;;5074464;28;20456;-52
2023/06/20 03:52:38;;;;;;;3.83;3.53;;;25.20;77.20;;;;;;5075103;28;20468;-54
2023/06/20 03:55:07;;;;;;;4.07;3.67;;;25.30;77.30;;;;;;5074293;28;20514;-56
2023/06/20 03:57:34;;;;;;;4.43;4.07;;;25.20;77.20;;;;;;5076282;28;20456;-54
2023/06/20 04:00:00;;;;;;;3.73;3.20;;;25.20;77.10;;;;;;5076399;28;20746;-53
2023/06/20 04:02:27;;;;;;;3.77;3.47;;;25.30;77.30;;;;;;5073512;28;21031;-55
2023/06/20 04:04:54;;;;;;;4.03;3.73;;;25.20;77.20;;;;;;5074661;28;20567;-53
2023/06/20 04:07:20;;;;;;;5.20;4.40;;;25.30;77.30;;;;;;5075263;28;20539;-55
2023/06/20 04:09:49;;;;;;;3.50;3.17;;;25.20;77.10;;;;;;5080661;28;20456;-51
2023/06/20 04:12:17;;;;;;;4.13;3.83;;;25.20;77.20;;;;;;5069422;28;20459;-53
2023/06/20 04:14:44;;;;;;;3.60;3.30;;;25.20;77.10;;;;;;5071635;28;20476;-55
2023/06/20 04:17:10;;;;;;;3.97;3.53;;;25.20;77.10;;;;;;5071540;28;20477;-57
2023/06/20 04:19:37;;;;;;;3.60;3.30;;;25.20;77.10;;;;;;5069108;28;20542;-56
2023/06/20 04:22:04;;;;;;;3.60;3.30;;;25.20;77.10;;;;;;5076616;28;20866;-54
2023/06/20 04:24:31;;;;;;;4.13;3.77;;;25.20;77.10;;;;;;5075725;28;20842;-52
2023/06/20 04:26:58;;;;;;;3.93;3.63;;;25.20;77.10;;;;;;5075343;28;20997;-55
2023/06/20 04:29:29;;;;;;;4.70;4.30;;;25.20;77.10;;;;;;5073983;28;20456;-55
2023/06/20 04:31:56;;;;;;;4.70;4.30;;;25.30;77.20;;;;;;5072313;28;20464;-55
2023/06/20 04:34:23;;;;;;;3.97;3.67;;;25.20;77.10;;;;;;5074929;28;20912;-54
2023/06/20 04:36:50;;;;;;;3.83;3.53;;;25.20;77.20;;;;;;5081479;28;20459;-53
2023/06/20 04:39:17;;;;;;;4.90;3.97;;;25.20;77.10;;;;;;5074574;28;20882;-55
2023/06/20 04:41:43;;;;;;;4.20;3.80;;;25.20;77.10;;;;;;5074695;28;20470;-54
2023/06/20 04:44:10;;;;;;;3.83;3.53;;;25.20;77.10;;;;;;5068779;28;20461;-53
2023/06/20 04:46:38;;;;;;;3.37;3.07;;;25.20;77.10;;;;;;5069511;28;21000;-53
2023/06/20 04:49:05;;;;;;;3.70;3.40;;;25.20;77.10;;;;;;5068021;28;20456;-54
2023/06/20 04:51:31;;;;;;;3.93;3.63;;;25.20;77.10;;;;;;5070705;28;20458;-54
2023/06/20 04:53:58;;;;;;;4.20;3.80;;;25.20;77.10;;;;;;5070616;28;21024;-52
2023/06/20 04:56:25;;;;;;;4.10;3.80;;;25.20;77.10;;;;;;5070763;28;20630;-53
2023/06/20 04:58:51;;;;;;;3.83;3.53;;;25.20;77.10;;;;;;5066076;28;20467;-53
2023/06/20 05:01:18;;;;;;;3.47;3.17;;;25.20;77.10;;;;;;5064096;28;20464;-55
2023/06/20 05:03:46;;;;;;;4.37;3.97;;;25.20;77.10;;;;;;5069115;28;20990;-51
2023/06/20 05:06:17;;;;;;;4.63;4.10;;;25.20;77.10;;;;;;5070545;28;20456;-55
2023/06/20 05:08:44;;;;;;;3.20;2.90;;;25.20;77.10;;;;;;5068940;28;20496;-54
2023/06/20 05:11:10;;;;;;;3.80;3.50;;;25.20;77.10;;;;;;5072791;28;20931;-55
2023/06/20 05:13:37;;;;;;;3.97;3.57;;;25.20;77.10;;;;;;5068689;28;20728;-57
2023/06/20 05:16:04;;;;;;;4.43;3.93;;;25.20;77.10;;;;;;5063105;28;20484;-52
2023/06/20 05:18:31;;;;;;;3.53;3.23;;;25.20;77.00;;;;;;5065184;28;20467;-52
2023/06/20 05:20:59;;;;;;;3.63;3.43;;;25.20;77.10;;;;;;5068092;28;20875;-54
2023/06/20 05:23:27;;;;;;;3.93;3.53;;;25.20;77.00;;;;;;5069465;28;21083;-53
2023/06/20 05:25:53;;;;;;;3.60;3.40;;;25.10;77.10;;;;;;5071178;28;20468;-53
2023/06/20 05:28:20;;;;;;;3.90;3.60;;;25.20;77.00;;;;;;5068765;28;20901;-52
2023/06/20 05:30:47;;;;;;;3.60;3.30;;;25.20;77.10;;;;;;5072558;28;21225;-55
2023/06/20 05:33:13;;;;;;;3.90;3.47;;;25.20;77.10;;;;;;5073895;28;20854;-55
2023/06/20 05:35:41;;;;;;;3.60;3.30;;;25.20;77.10;;;;;;5075520;28;20866;-55
2023/06/20 05:38:09;;;;;;;3.50;3.20;;;25.20;77.00;;;;;;5066314;28;20471;-54
2023/06/20 05:40:35;;;;;;;3.87;3.57;;;25.20;77.10;;;;;;5066357;28;20499;-56
2023/06/20 05:43:02;;;;;;;3.90;3.50;;;25.20;77.00;;;;;;5063081;28;20461;-54
2023/06/20 05:45:29;;;;;;;3.20;3.00;;;25.20;77.00;;;;;;5062377;28;20477;-51
2023/06/20 05:47:55;;;;;;;3.70;3.40;;;25.20;77.10;;;;;;5061844;28;20976;-54
2023/06/20 05:50:22;;;;;;;4.03;3.73;;;25.20;77.00;;;;;;5059444;28;20968;-54
2023/06/20 05:52:49;;;;;;;3.53;3.33;;;25.20;77.20;;;;;;5063275;28;20469;-54
2023/06/20 05:55:17;;;;;;;3.40;3.20;;;25.20;77.00;;;;;;5062783;28;20476;-55
2023/06/20 05:57:43;;;;;;;3.47;3.17;;;25.20;77.00;;;;;;5063744;28;20532;-54
2023/06/20 06:00:12;;;;;;;4.27;3.87;;;25.20;77.10;;;;;;5056553;28;20460;-52
2023/06/20 06:02:39;;;;;;;3.77;3.47;;;25.20;77.00;;;;;;5064366;28;20452;-54
2023/06/20 06:05:07;;;;;;;3.67;3.37;;;25.10;77.00;;;;;;5061358;28;20465;-53
2023/06/20 06:07:33;;;;;;;4.00;3.70;;;25.20;77.00;;;;;;5062581;28;20465;-51
2023/06/20 06:10:00;;;;;;;3.47;3.17;;;25.10;77.00;;;;;;5063290;28;20460;-51
2023/06/20 06:12:28;;;;;;;4.10;3.77;;;25.10;77.00;;;;;;5061680;28;20510;-52
2023/06/20 06:14:55;;;;;;;4.20;3.70;;;25.10;77.00;;;;;;5062111;28;20535;-53
2023/06/20 06:17:21;;;;;;;3.73;3.43;;;25.20;77.10;;;;;;5064085;28;20478;-52
2023/06/20 06:19:48;;;;;;;3.73;3.43;;;25.10;77.00;;;;;;5058888;28;21928;-52
2023/06/20 06:22:15;;;;;;;3.37;3.10;;;25.10;77.00;;;;;;5054672;28;20461;-53
2023/06/20 06:24:41;;;;;;;3.50;3.27;;;25.10;77.00;;;;;;5063676;28;21188;-51
2023/06/20 06:27:08;;;;;;;3.93;3.63;;;25.10;77.00;;;;;;5063735;28;20461;-52
2023/06/20 06:29:36;;;;;;;4.03;3.73;;;25.10;77.00;;;;;;5063039;28;20516;-50
2023/06/20 06:32:03;;;;;;;3.20;3.00;;;25.10;77.00;;;;;;5063997;28;20460;-50
2023/06/20 06:34:30;;;;;;;4.10;3.80;;;25.10;77.80;;;;;;5062905;28;20461;-54
2023/06/20 06:36:57;;;;;;;4.10;3.80;;;25.10;77.00;;;;;;5064329;28;20475;-52
2023/06/20 06:39:24;;;;;;;3.27;3.00;;;25.10;77.00;;;;;;5065050;28;20444;-51
2023/06/20 06:41:51;;;;;;;3.90;3.60;;;25.10;77.00;;;;;;5065074;28;20542;-51
2023/06/20 06:44:18;;;;;;;3.30;3.00;;;25.10;77.00;;;;;;5062372;28;20465;-52
2023/06/20 06:46:46;;;;;;;3.93;3.63;;;25.10;77.00;;;;;;5060486;28;20483;-52
2023/06/20 06:49:12;;;;;;;3.00;2.80;;;25.10;77.00;;;;;;5062177;28;20992;-50
2023/06/20 06:51:40;;;;;;;3.70;3.40;;;25.10;77.00;;;;;;5064608;28;20453;-52
2023/06/20 06:54:07;;;;;;;3.90;3.33;;;25.10;77.00;;;;;;5064733;28;20464;-53
2023/06/20 06:56:34;;;;;;;3.10;2.90;;;25.10;77.00;;;;;;5065729;28;21025;-54
2023/06/20 06:59:02;;;;;;;3.67;3.30;;;25.10;77.00;;;;;;5067307;28;20460;-52
2023/06/20 07:01:29;;;;;;;4.00;3.60;;;25.10;76.90;;;;;;5062472;28;20452;-52
2023/06/20 07:03:57;;;;;;;4.00;3.70;;;25.10;77.00;;;;;;5063192;28;20466;-51
2023/06/20 07:06:24;;;;;;;5.67;4.87;;;25.10;77.50;;;;;;5065110;28;20465;-53
2023/06/20 07:08:52;;;;;;;5.00;4.47;;;25.10;78.20;;;;;;5062641;28;20468;-55
2023/06/20 07:11:19;;;;;;;4.23;3.83;;;25.20;79.10;;;;;;5064854;28;20535;-49
2023/06/20 07:13:45;;;;;;;3.87;3.60;;;25.10;79.00;;;;;;5067173;28;20483;-51
2023/06/20 07:16:12;;;;;;;5.70;4.90;;;25.20;79.70;;;;;;5065725;28;20502;-52
2023/06/20 07:18:39;;;;;;;5.23;4.83;;;25.20;79.90;;;;;;5061793;28;20498;-51
2023/06/20 07:21:07;;;;;;;4.97;4.47;;;25.10;79.90;;;;;;5067580;28;20461;-54
2023/06/20 07:23:33;;;;;;;5.90;4.37;;;25.20;80.10;;;;;;5061250;28;20485;-52
2023/06/20 07:26:00;;;;;;;3.70;3.40;;;25.20;80.10;;;;;;5063598;28;20497;-54
2023/06/20 07:28:28;;;;;;;3.57;3.30;;;25.20;80.10;;;;;;5066011;28;20453;-52
2023/06/20 07:30:55;;;;;;;4.80;4.40;;;25.20;80.00;;;;;;5064050;28;20460;-52
2023/06/20 07:33:22;;;;;;;5.30;4.80;;;25.20;80.20;;;;;;5063337;28;20518;-51
2023/06/20 07:35:48;;;;;;;4.17;3.87;;;25.20;80.40;;;;;;5066738;28;20865;-53
2023/06/20 07:38:16;;;;;;;4.27;3.87;;;25.20;80.90;;;;;;5063875;28;20995;-53
2023/06/20 07:40:43;;;;;;;3.90;3.60;;;25.20;81.00;;;;;;5063287;28;20464;-55
2023/06/20 07:43:10;;;;;;;5.20;4.70;;;25.20;81.10;;;;;;5066377;28;20464;-53
2023/06/20 07:45:37;;;;;;;4.10;3.80;;;25.20;82.00;;;;;;5059476;28;20461;-53
2023/06/20 07:48:04;;;;;;;7.40;5.43;;;25.20;81.90;;;;;;5064804;28;20530;-54
2023/06/20 07:50:31;;;;;;;4.87;4.47;;;25.20;82.10;;;;;;5065012;28;20514;-53
2023/06/20 07:52:57;;;;;;;4.60;4.30;;;25.20;82.00;;;;;;5069301;28;20531;-51
2023/06/20 07:55:25;;;;;;;4.60;4.20;;;25.20;82.60;;;;;;5067654;28;20471;-53
2023/06/20 07:57:53;;;;;;;4.27;3.90;;;25.20;82.90;;;;;;5067427;28;20479;-52
2023/06/20 08:00:21;;;;;;;5.00;4.20;;;25.30;83.20;;;;;;5065664;28;20472;-51
2023/06/20 08:02:47;;;;;;;6.43;5.83;;;25.30;83.70;;;;;;5068273;28;20482;-55
2023/06/20 08:05:14;;;;;;;7.43;5.40;;;25.20;84.00;;;;;;5061993;28;20818;-54
2023/06/20 08:07:41;;;;;;;6.93;5.67;;;25.20;84.20;;;;;;5065743;28;20464;-53
2023/06/20 08:10:10;;;;;;;8.60;5.87;;;25.30;84.80;;;;;;5066321;28;21058;-52
2023/06/20 08:12:38;;;;;;;6.60;5.73;;;25.20;85.70;;;;;;5064669;28;20522;-54
2023/06/20 08:15:05;;;;;;;6.50;6.00;;;25.20;86.50;;;;;;5062709;28;20456;-54
2023/06/20 08:17:33;;;;;;;6.00;5.50;;;25.30;86.70;;;;;;5067334;28;20449;-52
2023/06/20 08:20:00;;;;;;;5.90;4.57;;;25.30;86.60;;;;;;5066480;28;20492;-51
2023/06/20 08:22:26;;;;;;;5.93;4.60;;;25.30;86.20;;;;;;5062124;28;20927;-51
2023/06/20 08:24:53;;;;;;;6.27;4.70;;;25.30;86.00;;;;;;5065906;28;20476;-54
2023/06/20 08:27:20;;;;;;;5.40;4.80;;;25.30;86.10;;;;;;5064732;28;20832;-53
2023/06/20 08:29:48;;;;;;;4.00;3.70;;;25.30;86.10;;;;;;5063860;28;20847;-52
2023/06/20 08:32:15;;;;;;;3.70;3.40;;;25.30;85.70;;;;;;5067267;28;20456;-55
2023/06/20 08:34:41;;;;;;;3.90;3.60;;;25.30;85.50;;;;;;5068152;28;20472;-53
2023/06/20 08:37:08;;;;;;;5.23;4.77;;;25.30;85.80;;;;;;5069249;28;20479;-55
2023/06/20 08:39:35;;;;;;;4.87;4.13;;;25.30;86.00;;;;;;5071508;28;20984;-54
2023/06/20 08:42:01;;;;;;;4.43;4.03;;;25.30;86.40;;;;;;5071413;28;20460;-52
2023/06/20 08:44:28;;;;;;;4.63;4.23;;;25.30;86.00;;;;;;5062800;28;20502;-55
2023/06/20 08:46:57;;;;;;;8.30;4.20;;;25.30;86.00;;;;;;5070024;28;20452;-53
2023/06/20 08:49:24;;;;;;;5.87;4.27;;;25.30;85.60;;;;;;5069424;28;20456;-53
2023/06/20 08:51:54;;;;;;;6.20;3.70;;;25.30;86.00;;;;;;5070841;28;20471;-55
2023/06/20 08:54:23;;;;;;;5.30;4.07;;;25.30;86.00;;;;;;5071184;28;20444;-51
2023/06/20 08:56:50;;;;;;;6.83;3.57;;;25.30;86.00;;;;;;5069433;28;20598;-52
2023/06/20 08:59:21;;;;;;;5.20;3.17;;;25.30;85.70;;;;;;5065600;28;20453;-53
2023/06/20 09:01:48;;;;;;;4.80;4.40;;;25.30;85.40;;;;;;5064026;28;20468;-55
2023/06/20 09:04:18;;;;;;;5.47;4.83;;;25.30;86.00;;;;;;5065979;28;20831;-53
2023/06/20 09:06:45;;;;;;;3.97;3.50;;;25.30;86.20;;;;;;5070184;28;20878;-52
2023/06/20 09:09:16;;;;;;;8.13;4.47;;;25.30;85.50;;;;;;5062470;28;20463;-54
2023/06/20 09:11:48;;;;;;;5.27;4.03;;;25.30;85.40;;;;;;5065033;28;20472;-53
2023/06/20 09:14:15;;;;;;;5.63;5.13;;;25.30;85.90;;;;;;5065453;28;21153;-55
2023/06/20 09:16:42;;;;;;;5.40;4.90;;;25.30;85.90;;;;;;5066714;28;20480;-53
2023/06/20 09:19:09;;;;;;;4.73;4.33;;;25.30;85.60;;;;;;5064810;28;20471;-56
2023/06/20 09:21:40;;;;;;;5.50;5.03;;;25.30;85.50;;;;;;5066984;28;20471;-55
2023/06/20 09:24:07;;;;;;;5.77;3.90;;;25.30;85.50;;;;;;5067028;28;20520;-56
2023/06/20 09:26:35;;;;;;;4.60;4.20;;;25.30;85.60;;;;;;5069411;28;20472;-52
2023/06/20 09:29:09;;;;;;;4.63;4.30;;;25.30;85.90;;;;;;5066344;28;20534;-56
2023/06/20 09:31:43;;;;;;;4.70;4.20;;;25.40;85.80;;;;;;5066306;28;20478;-54
2023/06/20 09:34:12;;;;;;;6.83;5.57;;;25.30;85.00;;;;;;5060207;28;20514;-52
2023/06/20 09:36:40;;;;;;;4.73;4.43;;;25.30;85.30;;;;;;5068100;28;20482;-54
2023/06/20 09:39:10;;;;;;;4.50;4.10;;;25.30;85.00;;;;;;5064949;28;20555;-55
2023/06/20 09:41:36;;;;;;;4.87;4.47;;;25.30;85.40;;;;;;5065872;28;20939;-53
2023/06/20 09:44:03;;;;;;;4.67;4.27;;;25.30;85.60;;;;;;5065832;28;20463;-55
2023/06/20 09:46:30;;;;;;;6.47;5.33;;;25.30;85.60;;;;;;5062143;28;20960;-54
2023/06/20 09:48:57;;;;;;;5.60;5.10;;;25.40;85.70;;;;;;5065732;28;20816;-52
2023/06/20 09:51:26;;;;;;;4.63;4.33;;;25.30;85.50;;;;;;5064335;28;20537;-51
2023/06/20 09:54:03;;;;;;;4.27;3.87;;;25.30;85.60;;;;;;5067076;28;20519;-51
2023/06/20 09:56:30;;;;;;;4.93;4.53;;;25.40;85.70;;;;;;5065321;28;20556;-50
2023/06/20 09:58:58;;;;;;;4.30;4.00;;;25.40;85.60;;;;;;5066502;28;20463;-49
2023/06/20 10:01:27;;;;;;;5.53;4.60;;;25.40;85.60;;;;;;5061832;28;20536;-53
2023/06/20 10:03:55;;;;;;;4.53;4.20;;;25.40;85.40;;;;;;5055687;28;20521;-53
2023/06/20 10:06:23;;;;;;;4.50;4.10;;;25.40;85.70;;;;;;5070049;28;20539;-53
2023/06/20 10:08:51;;;;;;;4.00;3.70;;;25.40;85.30;;;;;;5063909;28;20721;-52
2023/06/20 10:11:21;;;;;;;4.77;4.27;;;25.40;85.40;;;;;;5066342;28;20464;-51
2023/06/20 10:13:48;;;;;;;3.93;3.63;;;25.40;85.40;;;;;;5070566;28;20457;-49
2023/06/20 10:16:15;;;;;;;4.43;3.70;;;25.40;85.30;;;;;;5063879;28;20499;-51
2023/06/20 10:18:43;;;;;;;4.37;4.07;;;25.40;85.20;;;;;;5068253;28;20473;-52
2023/06/20 10:21:14;;;;;;;5.03;4.63;;;25.40;85.30;;;;;;5068947;28;20547;-50
2023/06/20 10:23:41;;;;;;;5.67;5.07;;;25.40;85.80;;;;;;5069137;28;20469;-52
2023/06/20 10:26:10;;;;;;;5.13;4.67;;;25.40;85.70;;;;;;5066279;28;20468;-51
2023/06/20 10:28:39;;;;;;;5.13;4.70;;;25.40;85.80;;;;;;5060823;28;20460;-52
2023/06/20 10:31:06;;;;;;;4.87;4.37;;;25.40;85.80;;;;;;5062296;28;20681;-50
2023/06/20 10:33:33;;;;;;;4.97;4.47;;;25.40;85.70;;;;;;5062468;28;20456;-55
2023/06/20 10:36:03;;;;;;;5.10;4.67;;;25.40;85.80;;;;;;5063596;28;20552;-51
2023/06/20 10:38:31;;;;;;;4.63;4.23;;;25.40;85.60;;;;;;5071935;28;20441;-54
2023/06/20 10:41:09;;;;;;;5.40;4.17;;;25.40;85.50;;;;;;5072232;28;20472;-50
2023/06/20 10:43:52;;;;;;;8.43;4.77;;;25.40;85.40;;;;;;5069937;28;20461;-51
2023/06/20 10:46:21;;;;;;;4.80;4.40;;;25.40;85.30;;;;;;5068525;28;20462;-55
2023/06/20 10:48:48;;;;;;;4.00;3.60;;;25.40;85.30;;;;;;5066510;28;21129;-52
2023/06/20 10:51:14;;;;;;;4.10;3.80;;;25.40;85.30;;;;;;5070539;28;20457;-50
2023/06/20 10:53:41;;;;;;;4.63;3.80;;;25.40;85.30;;;;;;5072548;28;20453;-50
2023/06/20 10:56:08;;;;;;;5.40;3.90;;;25.40;85.20;;;;;;5060545;28;20483;-53
2023/06/20 10:58:35;;;;;;;4.43;4.13;;;25.40;85.30;;;;;;5059699;28;20453;-51
2023/06/20 11:01:03;;;;;;;4.27;3.97;;;25.40;85.20;;;;;;5062954;28;20539;-53
2023/06/20 11:03:30;;;;;;;3.97;3.40;;;25.40;85.30;;;;;;5063877;28;20469;-51
2023/06/20 11:05:57;;;;;;;4.33;4.03;;;25.40;85.20;;;;;;5060743;28;21887;-50
2023/06/20 11:08:26;;;;;;;4.00;3.70;;;25.40;85.30;;;;;;5058841;28;20845;-50
2023/06/20 11:10:52;;;;;;;4.93;4.53;;;25.40;85.30;;;;;;5062167;28;20498;-49
2023/06/20 11:13:19;;;;;;;5.60;4.30;;;25.40;85.20;;;;;;5069616;28;20464;-50
2023/06/20 11:15:46;;;;;;;4.20;3.83;;;25.40;85.30;;;;;;5069996;28;20462;-51
2023/06/20 11:18:14;;;;;;;4.87;4.37;;;25.40;85.20;;;;;;5063106;28;20495;-51
2023/06/20 11:20:42;;;;;;;5.23;3.70;;;25.40;85.20;;;;;;5063751;28;20868;-51
2023/06/20 11:23:12;;;;;;;4.03;3.63;;;25.40;85.10;;;;;;5065292;28;20944;-52
2023/06/20 11:25:40;;;;;;;7.17;4.10;;;25.40;85.30;;;;;;5059599;28;20859;-52
2023/06/20 11:28:08;;;;;;;4.93;4.53;;;25.50;85.40;;;;;;5062876;28;20465;-52
2023/06/20 11:30:38;;;;;;;4.37;3.97;;;25.40;85.10;;;;;;5059370;28;20454;-52
2023/06/20 11:33:07;;;;;;;4.57;4.17;;;25.40;85.10;;;;;;5061359;28;20815;-53
2023/06/20 11:35:51;;;;;;;4.00;3.30;;;25.40;85.20;;;;;;5058692;28;20489;-50
2023/06/20 11:38:20;;;;;;;8.30;4.17;;;25.40;85.30;;;;;;5061799;28;20480;-52
2023/06/20 11:40:50;;;;;;;4.30;3.90;;;25.50;85.30;;;;;;5059618;28;20459;-53
2023/06/20 11:43:21;;;;;;;4.23;3.83;;;25.50;85.40;;;;;;5061959;28;20510;-54
2023/06/20 11:45:48;;;;;;;4.40;3.60;;;25.50;85.30;;;;;;5062286;28;20824;-52
2023/06/20 11:48:16;;;;;;;4.57;4.20;;;25.40;85.20;;;;;;5065715;28;20461;-54
2023/06/20 11:50:45;;;;;;;4.47;4.10;;;25.50;85.30;;;;;;5063720;28;20461;-53
2023/06/20 11:53:21;;;;;;;7.53;4.27;;;25.40;85.40;;;;;;5064875;28;20457;-55
2023/06/20 11:55:48;;;;;;;4.03;3.63;;;25.50;85.70;;;;;;5066744;28;20476;-50
2023/06/20 11:58:15;;;;;;;4.50;3.73;;;25.50;85.70;;;;;;5061510;28;20694;-53
2023/06/20 12:00:45;;;;;;;3.80;3.50;;;25.50;85.60;;;;;;5063252;28;20468;-52
2023/06/20 12:03:12;;;;;;;4.83;3.60;;;25.50;85.70;;;;;;5061745;28;20484;-53
2023/06/20 12:05:38;;;;;;;4.30;4.00;;;25.50;85.80;;;;;;5061293;28;20897;-54
2023/06/20 12:08:05;;;;;;;3.53;3.23;;;25.50;86.00;;;;;;5066077;28;20456;-53
2023/06/20 12:10:34;;;;;;;4.33;4.03;;;25.50;86.00;;;;;;5065177;28;20468;-53
2023/06/20 12:13:04;;;;;;;4.67;4.27;;;25.50;85.90;;;;;;5060949;28;20461;-53
2023/06/20 12:15:31;;;;;;;3.97;3.57;;;25.50;86.00;;;;;;5060820;28;20532;-49
2023/06/20 12:17:57;;;;;;;4.50;4.03;;;25.50;86.20;;;;;;5069224;28;20495;-51
2023/06/20 12:20:24;;;;;;;4.47;4.07;;;25.50;86.00;;;;;;5066989;28;20472;-49
2023/06/20 12:22:51;;;;;;;5.20;4.10;;;25.50;86.20;;;;;;5068221;28;20460;-50
2023/06/20 12:25:17;;;;;;;3.70;3.40;;;25.50;86.20;;;;;;5068283;28;20492;-55
2023/06/20 12:27:45;;;;;;;3.80;3.50;;;25.50;86.20;;;;;;5071420;28;20471;-53
2023/06/20 12:30:13;;;;;;;3.97;3.60;;;25.50;86.20;;;;;;5068308;28;20460;-52
2023/06/20 12:32:40;;;;;;;3.80;3.50;;;25.50;86.30;;;;;;5072302;28;21058;-54
2023/06/20 12:35:07;;;;;;;4.20;3.43;;;25.50;86.30;;;;;;5067376;28;20456;-53
2023/06/20 12:37:34;;;;;;;4.50;4.20;;;25.50;86.30;;;;;;5071434;28;20475;-53
2023/06/20 12:40:00;;;;;;;3.87;3.57;;;25.50;86.40;;;;;;5066950;28;20825;-54
2023/06/20 12:42:28;;;;;;;3.57;3.33;;;25.50;86.40;;;;;;5071189;28;20864;-54
2023/06/20 12:44:56;;;;;;;4.73;4.33;;;25.50;86.40;;;;;;5068303;28;20991;-52
2023/06/20 12:47:23;;;;;;;4.13;3.73;;;25.50;86.50;;;;;;5066298;28;20465;-48
2023/06/20 12:49:50;;;;;;;3.50;3.20;;;25.50;86.40;;;;;;5064353;28;20535;-50
2023/06/20 12:52:16;;;;;;;4.80;3.90;;;25.50;86.30;;;;;;5067615;28;20467;-52